Etusivu
METAR-TAF:

METAR-TAF

Lentoasemat :

Kunming Changshuin kansainvälinen lentoasema

Kunming, Kiina

Leveyspiiri: 25-01N, Pituuspiiri: 102-41E, korkeus merenpinnasta: 1892 m

Tämänhetkinen sää

Tämä raportti tehtiin 37 minuuttia sitten, kello 14.00 UTC
Tuuli 8 kn lounaasta
Lämpötila 22°C
Kosteus 65%
Ilmanpaine 1015 hPa
Näkyvyys 10 km tai enemmän
Muutamia pilviä 2300 ft:n korkeudessa

METAR: ZPPP 061400Z 22004MPS 9999 FEW023 22/15 Q1015 NOSIG

Aika: 22:37 (14:37 UTC)

Sääennuste

Tämä raportti tehtiin 5 tuntia ja 31 minuuttia sitten, kello 09.06 UTC
Ennuste voimassa 06. päivästä klo 12 UTC - 07. päivään klo 12 UTC
Tuuli 12 kn lounaasta
Näkyvyys 10 km tai enemmän
Hajanaisia pilviä 2600 ft:n korkeudessa
Hajonneita pilviä 4000 ft:n korkeudessa

TAF: ZPPP 060906Z 0612/0712 23006MPS 9999 SCT026 BKN040 TX29/0708Z TN16/0623Z

Säähavainnot ja -ennusteet yli 4000 lentoasemalta (METAR- ja TAF-raportit).

Käytössä olevat sääasemat on merkitty karttaan keltaisilla ja punaisilla pisteillä.

Aseta hiiri pisteen päälle nähdäksesi sääaseman nimen.

Klikkaa sitten nähdäksesi säähavainnot ja -ennusteet.

Kartan vaihtaminen: klikkaa mustalla rastilla varustettuja vihreitä pisteitä, niin voit zoomata sisään; viivalla varustettua vihreää pistettä, niin voit zoomata ulos tai vihreitä nuolia, niin pääset viereisille kartoille.


METAR-TAF: